PWSweather.com
Personal Weather Stations
Station Observations
MARRWS
Allansford VictoriaAU 3277

Allansford VictoriaAU 3277

Lat: -38.4003683814149, Lon: 142.569826841354

Elevation: 36

Station Type: Fine Offset X7062

http://home.vicnet.net.au/~marr/Weather/

Latest ConditionsUpdated 3:40:02 AM GMT+10:10 Thursday, Apr 2, 2015
Currently Today's Max Today's Min Today's Average
Temperature 56.8°F13.8°C 59.5°F15.3°C 56.7°F13.7°C 58.0°F14.4°C
Dew Point 45.2°F7.3°C 53.4°F11.9°C 43.8°F6.6°C 48.5°F9.2°C
Winds 8.6 mph WSW13.8 kmh WSW 9.2 mph W14.8 kmh W - 7.1 mph 11.4 kmh
Wind Gusts 14.5 mph23.3 kmh 22.1 mph35.6 kmh - -
Humidity 65% 81% 62% 71%
Pressure 30.11 in1019.6 mb 30.11 in1019.6 mb 30.04 in1017.3 mb -
Hour Temp Dew Point Humidity Winds Wind Gusts Pressure Precip Precip Rate Daily Precip Total
03:40 AM 56.8°F13.8°C 45.2°F7.3°C 65% 8.6 mph WSW13.8 kmh WSW 14.5 mph23.3 kmh 30.11 in1019.6 mb 0.00 in0.0 mm 0.00 in0.0 mm 0.00 in0.0 mm
03:30 AM 56.7°F13.7°C 43.8°F6.6°C 62% 7.8 mph NW12.6 kmh NW 17.4 mph28.0 kmh 30.11 in1019.6 mb 0.00 in0.0 mm 0.00 in0.0 mm 0.00 in0.0 mm
03:20 AM 56.7°F13.7°C 43.8°F6.6°C 62% 3.3 mph SE5.3 kmh SE 16.8 mph27.0 kmh 30.10 in1019.3 mb 0.00 in0.0 mm 0.00 in0.0 mm 0.00 in0.0 mm
03:10 AM 56.7°F13.7°C 43.8°F6.6°C 62% 5.6 mph S9.0 kmh S 16.8 mph27.0 kmh 30.10 in1019.3 mb 0.00 in0.0 mm 0.00 in0.0 mm 0.00 in0.0 mm
03:00 AM 56.7°F13.7°C 44.2°F6.8°C 63% 6.6 mph SSE10.6 kmh SSE 11.4 mph18.3 kmh 30.09 in1019.0 mb 0.00 in0.0 mm 0.00 in0.0 mm 0.00 in0.0 mm
02:50 AM 57.0°F13.9°C 44.6°F7.0°C 63% 7.3 mph SSE11.7 kmh SSE 15.9 mph25.6 kmh 30.09 in1019.0 mb 0.00 in0.0 mm 0.00 in0.0 mm 0.00 in0.0 mm
02:40 AM 57.2°F14.0°C 44.7°F7.1°C 63% 7.2 mph SW11.6 kmh SW 22.1 mph35.6 kmh 30.08 in1018.6 mb 0.00 in0.0 mm 0.00 in0.0 mm 0.00 in0.0 mm
02:30 AM 57.2°F14.0°C 45.1°F7.3°C 64% 8.0 mph SW12.9 kmh SW 17.4 mph28.0 kmh 30.09 in1019.0 mb 0.00 in0.0 mm 0.00 in0.0 mm 0.00 in0.0 mm
02:20 AM 57.6°F14.2°C 46.7°F8.2°C 67% 6.3 mph S10.1 kmh S 18.3 mph29.5 kmh 30.09 in1019.0 mb 0.00 in0.0 mm 0.00 in0.0 mm 0.00 in0.0 mm
02:10 AM 57.9°F14.4°C 48.2°F9.0°C 70% 7.7 mph WSW12.4 kmh WSW 18.3 mph29.5 kmh 30.08 in1018.6 mb 0.00 in0.0 mm 0.00 in0.0 mm 0.00 in0.0 mm
02:00 AM 57.9°F14.4°C 46.2°F7.9°C 65% 7.4 mph SW11.9 kmh SW 17.4 mph28.0 kmh 30.08 in1018.6 mb 0.00 in0.0 mm 0.00 in0.0 mm 0.00 in0.0 mm
01:50 AM 58.3°F14.6°C 47.8°F8.8°C 68% 6.6 mph SW10.6 kmh SW 15.2 mph24.5 kmh 30.08 in1018.6 mb 0.00 in0.0 mm 0.00 in0.0 mm 0.00 in0.0 mm
01:40 AM 58.1°F14.5°C 48.8°F9.3°C 71% 7.2 mph SW11.6 kmh SW 16.8 mph27.0 kmh 30.08 in1018.6 mb 0.00 in0.0 mm 0.00 in0.0 mm 0.00 in0.0 mm
01:30 AM 58.1°F14.5°C 49.5°F9.7°C 73% 6.4 mph SW10.3 kmh SW 16.8 mph27.0 kmh 30.07 in1018.3 mb 0.00 in0.0 mm 0.00 in0.0 mm 0.00 in0.0 mm
01:20 AM 58.6°F14.8°C 51.1°F10.6°C 76% 6.9 mph SW11.1 kmh SW 17.4 mph28.0 kmh 30.06 in1017.9 mb 0.00 in0.0 mm 0.00 in0.0 mm 0.00 in0.0 mm
01:10 AM 58.6°F14.8°C 51.1°F10.6°C 76% 6.8 mph SW10.9 kmh SW 17.4 mph28.0 kmh 30.06 in1017.9 mb 0.00 in0.0 mm 0.00 in0.0 mm 0.00 in0.0 mm
01:00 AM 58.6°F14.8°C 51.8°F11.0°C 78% 7.6 mph SSE12.2 kmh SSE 13.6 mph21.9 kmh 30.06 in1017.9 mb 0.00 in0.0 mm 0.00 in0.0 mm 0.00 in0.0 mm
12:50 AM 59.0°F15.0°C 53.2°F11.8°C 81% 7.6 mph NE12.2 kmh NE 9.8 mph15.8 kmh 30.06 in1017.9 mb 0.00 in0.0 mm 0.00 in0.0 mm 0.00 in0.0 mm
12:40 AM 59.0°F15.0°C 53.2°F11.8°C 81% 7.6 mph NE12.2 kmh NE 9.8 mph15.8 kmh 30.05 in1017.6 mb 0.00 in0.0 mm 0.00 in0.0 mm 0.00 in0.0 mm
12:30 AM 59.0°F15.0°C 53.2°F11.8°C 81% 7.6 mph NE12.2 kmh NE 9.8 mph15.8 kmh 30.05 in1017.6 mb 0.00 in0.0 mm 0.00 in0.0 mm 0.00 in0.0 mm
12:20 AM 59.0°F15.0°C 53.2°F11.8°C 81% 7.6 mph NE12.2 kmh NE 9.8 mph15.8 kmh 30.04 in1017.3 mb 0.00 in0.0 mm 0.00 in0.0 mm 0.00 in0.0 mm
12:10 AM 59.0°F15.0°C 53.2°F11.8°C 81% 7.5 mph NE12.1 kmh NE 9.8 mph15.8 kmh 30.04 in1017.3 mb 0.00 in0.0 mm 0.00 in0.0 mm 0.00 in0.0 mm
12:00 AM 59.5°F15.3°C 53.4°F11.9°C 80% 9.2 mph W14.8 kmh W 18.3 mph29.5 kmh 30.04 in1017.3 mb 0.00 in0.0 mm 0.00 in0.0 mm 0.00 in0.0 mm